createdAt,value
2023-03-27T00:02:08.605Z,0.40
2023-03-27T00:04:35.557Z,0.73
2023-03-27T00:07:03.365Z,1.33
2023-03-27T00:09:32.694Z,1.63
2023-03-27T00:12:00.774Z,0.40
2023-03-27T00:14:27.557Z,1.10
2023-03-27T00:16:54.210Z,4.15
2023-03-27T00:19:21.762Z,0.80
2023-03-27T00:21:48.706Z,3.45
2023-03-27T00:24:15.808Z,0.73
2023-03-27T00:26:42.905Z,0.77
2023-03-27T00:29:10.465Z,5.60
2023-03-27T00:31:37.100Z,1.05
2023-03-27T00:34:03.712Z,0.40
2023-03-27T00:36:31.105Z,1.85
2023-03-27T00:38:57.866Z,0.50
2023-03-27T00:41:24.592Z,0.55
2023-03-27T00:43:54.029Z,0.40
2023-03-27T00:46:27.861Z,0.60
2023-03-27T00:48:54.630Z,1.13
2023-03-27T00:51:22.227Z,1.63
2023-03-27T00:53:48.892Z,0.47
2023-03-27T00:56:16.364Z,0.65
2023-03-27T00:58:49.057Z,1.00
2023-03-27T01:01:16.592Z,2.47
2023-03-27T01:03:45.495Z,0.60
2023-03-27T01:06:13.924Z,4.75
2023-03-27T01:08:41.220Z,0.93
2023-03-27T01:11:30.748Z,1.20
2023-03-27T01:14:11.184Z,2.42
2023-03-27T01:17:00.402Z,2.90
2023-03-27T01:22:54.794Z,1.77
2023-03-27T01:30:42.170Z,0.75
2023-03-27T01:33:25.815Z,0.60
2023-03-27T01:36:32.377Z,0.95
2023-03-27T01:39:35.856Z,0.65
2023-03-27T01:42:07.441Z,1.83
2023-03-27T01:44:52.048Z,1.15
2023-03-27T01:47:41.186Z,1.10
2023-03-27T01:50:14.442Z,0.90
2023-03-27T01:52:42.109Z,0.85
2023-03-27T01:55:12.162Z,0.73
2023-03-27T01:57:49.558Z,3.03
2023-03-27T02:00:21.712Z,0.77
2023-03-27T02:02:52.669Z,0.73
2023-03-27T02:05:24.134Z,0.63
2023-03-27T02:07:54.197Z,2.88
2023-03-27T02:10:24.112Z,0.60
2023-03-27T02:12:54.544Z,1.10
2023-03-27T02:15:27.417Z,0.85
2023-03-27T02:17:57.753Z,0.98
2023-03-27T02:20:24.447Z,0.80
2023-03-27T02:22:51.479Z,0.80
2023-03-27T02:25:29.875Z,0.63
2023-03-27T02:28:04.829Z,0.60
2023-03-27T02:31:06.990Z,0.68
2023-03-27T02:34:14.090Z,1.20
2023-03-27T02:37:21.349Z,0.75
2023-03-27T02:40:06.325Z,1.10
2023-03-27T02:42:47.821Z,1.20
2023-03-27T02:48:06.582Z,0.90
2023-03-27T02:50:55.642Z,1.00
2023-03-27T02:53:23.838Z,1.05
2023-03-27T02:55:53.725Z,1.00
2023-03-27T02:58:30.596Z,1.50
2023-03-27T03:00:58.135Z,1.13
2023-03-27T03:03:53.505Z,1.13
2023-03-27T03:06:21.036Z,1.50
2023-03-27T03:08:48.391Z,0.90
2023-03-27T03:11:15.540Z,1.10
2023-03-27T03:13:42.176Z,1.25
2023-03-27T03:16:09.847Z,0.75
2023-03-27T03:18:36.851Z,1.00
2023-03-27T03:21:04.678Z,1.00
2023-03-27T03:23:31.881Z,1.10
2023-03-27T03:25:58.626Z,1.40
2023-03-27T03:28:30.019Z,1.20
2023-03-27T03:30:58.872Z,0.93
2023-03-27T03:33:27.960Z,0.95
2023-03-27T03:35:54.666Z,1.00
2023-03-27T03:38:24.746Z,0.77
2023-03-27T03:40:54.169Z,0.90
2023-03-27T03:43:21.948Z,1.08
2023-03-27T03:45:49.271Z,1.40
2023-03-27T03:48:16.233Z,1.50
2023-03-27T03:50:44.380Z,4.05
2023-03-27T03:53:11.456Z,2.83
2023-03-27T03:55:38.280Z,1.38
2023-03-27T03:58:05.120Z,0.80
2023-03-27T04:00:34.475Z,2.03
2023-03-27T04:03:01.461Z,1.50
2023-03-27T04:05:28.394Z,1.50
2023-03-27T04:07:55.200Z,1.90
2023-03-27T04:10:21.962Z,2.05
2023-03-27T04:12:49.361Z,3.45
2023-03-27T04:15:16.538Z,1.83
2023-03-27T04:17:43.934Z,2.22
2023-03-27T04:20:12.983Z,1.40
2023-03-27T04:22:46.770Z,1.85
2023-03-27T04:25:14.816Z,2.25
2023-03-27T04:27:43.216Z,2.13
2023-03-27T04:30:14.032Z,2.05
2023-03-27T04:32:40.920Z,2.30
2023-03-27T04:35:11.253Z,2.70
2023-03-27T04:37:41.709Z,3.38
2023-03-27T04:40:10.203Z,3.13
2023-03-27T04:42:44.985Z,2.50
2023-03-27T04:45:14.217Z,2.97
2023-03-27T04:47:40.965Z,1.80
2023-03-27T04:50:08.354Z,1.83
2023-03-27T04:52:35.304Z,2.38
2023-03-27T04:55:02.284Z,1.58
2023-03-27T04:57:31.893Z,1.27
2023-03-27T04:59:59.290Z,1.40
2023-03-27T05:02:26.538Z,1.95
2023-03-27T05:04:58.365Z,1.42
2023-03-27T05:07:26.451Z,2.70
2023-03-27T05:09:53.146Z,1.52
2023-03-27T05:12:20.768Z,1.80
2023-03-27T05:14:48.558Z,1.65
2023-03-27T05:17:16.410Z,1.50
2023-03-27T05:19:43.556Z,1.83
2023-03-27T05:22:10.251Z,2.17
2023-03-27T05:24:37.674Z,1.48
2023-03-27T05:27:04.664Z,1.50
2023-03-27T05:29:47.516Z,1.60
2023-03-27T05:32:14.678Z,1.58
2023-03-27T05:34:42.301Z,1.80
2023-03-27T05:37:09.142Z,1.95
2023-03-27T05:39:36.681Z,2.30
2023-03-27T05:42:04.191Z,3.15
2023-03-27T05:44:31.011Z,1.83
2023-03-27T05:47:01.401Z,1.60
2023-03-27T05:49:28.300Z,1.98
2023-03-27T05:51:55.018Z,1.88
2023-03-27T05:54:21.748Z,2.40
2023-03-27T05:56:52.238Z,1.85
2023-03-27T05:59:20.050Z,3.22
2023-03-27T06:01:46.791Z,4.47
2023-03-27T06:04:13.452Z,2.03
2023-03-27T06:06:41.430Z,1.58
2023-03-27T06:09:08.181Z,2.70
2023-03-27T06:11:34.897Z,1.70
2023-03-27T06:14:02.112Z,2.28
2023-03-27T06:16:28.878Z,2.20
2023-03-27T06:18:56.152Z,3.08
2023-03-27T06:21:23.314Z,1.92
2023-03-27T06:23:50.123Z,3.08
2023-03-27T06:26:16.914Z,2.40
2023-03-27T06:28:44.081Z,3.25
2023-03-27T06:31:11.969Z,3.33
2023-03-27T06:33:40.906Z,2.83
2023-03-27T06:36:08.539Z,2.20
2023-03-27T06:38:35.241Z,3.55
2023-03-27T06:41:01.960Z,2.15
2023-03-27T06:43:28.804Z,2.85
2023-03-27T06:45:59.030Z,1.85
2023-03-27T06:48:27.340Z,2.80
2023-03-27T06:50:54.229Z,2.58
2023-03-27T06:53:27.480Z,2.63
2023-03-27T06:55:55.832Z,3.33
2023-03-27T06:58:22.775Z,2.08
2023-03-27T07:00:50.528Z,2.15
2023-03-27T07:03:17.931Z,1.48
2023-03-27T07:05:44.942Z,2.22
2023-03-27T07:08:21.720Z,2.78
2023-03-27T07:10:59.809Z,2.97
2023-03-27T07:13:34.793Z,2.50
2023-03-27T07:16:01.612Z,2.25
2023-03-27T07:18:28.328Z,1.98
2023-03-27T07:20:55.277Z,2.30
2023-03-27T07:23:22.107Z,2.70
2023-03-27T07:25:50.143Z,2.63
2023-03-27T07:28:18.337Z,2.25
2023-03-27T07:30:45.110Z,2.45
2023-03-27T07:33:12.528Z,2.85
2023-03-27T07:35:45.113Z,3.90
2023-03-27T07:38:11.946Z,2.38
2023-03-27T07:40:40.606Z,2.20
2023-03-27T07:43:07.714Z,2.63
2023-03-27T07:45:35.201Z,2.40
2023-03-27T07:48:06.810Z,2.75
2023-03-27T07:50:33.602Z,2.30
2023-03-27T07:53:00.389Z,3.28
2023-03-27T07:55:29.725Z,3.53
2023-03-27T07:58:02.386Z,3.22
2023-03-27T08:00:30.997Z,6.28
2023-03-27T08:03:05.929Z,3.75
2023-03-27T08:05:32.844Z,6.88
2023-03-27T08:07:59.571Z,4.00
2023-03-27T08:10:26.196Z,3.85
2023-03-27T08:12:53.088Z,4.20
2023-03-27T08:15:20.737Z,5.32
2023-03-27T08:17:47.644Z,6.43
2023-03-27T08:20:15.354Z,9.00
2023-03-27T08:22:42.113Z,10.18
2023-03-27T08:25:10.358Z,7.05
2023-03-27T08:27:37.091Z,5.85
2023-03-27T08:30:04.646Z,9.73
2023-03-27T08:32:31.769Z,7.13
2023-03-27T08:34:58.655Z,8.23
2023-03-27T08:37:25.346Z,6.43
2023-03-27T08:39:52.053Z,8.13
2023-03-27T08:42:21.957Z,6.22
2023-03-27T08:44:53.087Z,10.55
2023-03-27T08:47:37.571Z,7.97
2023-03-27T08:50:06.274Z,5.03
2023-03-27T08:52:33.302Z,9.10
2023-03-27T08:55:05.565Z,7.60
2023-03-27T08:57:33.072Z,10.80
2023-03-27T09:00:00.278Z,11.23
2023-03-27T09:02:49.844Z,12.13
2023-03-27T09:05:22.112Z,13.57
2023-03-27T09:08:15.126Z,14.27
2023-03-27T09:11:05.297Z,16.80
2023-03-27T09:13:38.906Z,13.13
2023-03-27T09:16:26.374Z,18.65
2023-03-27T09:19:23.240Z,19.38
2023-03-27T09:22:14.318Z,14.93
2023-03-27T09:24:42.232Z,15.32
2023-03-27T09:27:22.277Z,23.98
2023-03-27T09:30:05.953Z,20.13
2023-03-27T09:32:33.553Z,14.85
2023-03-27T09:35:01.149Z,14.90
2023-03-27T09:37:28.110Z,12.38
2023-03-27T09:39:55.091Z,12.93
2023-03-27T09:42:25.269Z,14.35
2023-03-27T09:44:56.828Z,11.32
2023-03-27T09:47:31.259Z,16.57
2023-03-27T09:50:18.604Z,14.15
2023-03-27T09:52:45.257Z,12.95
2023-03-27T09:55:30.986Z,9.25
2023-03-27T09:58:20.508Z,12.52
2023-03-27T10:00:48.120Z,19.92
2023-03-27T10:03:17.604Z,8.73
2023-03-27T10:05:45.078Z,8.02
2023-03-27T10:08:37.844Z,11.07
2023-03-27T10:11:06.624Z,7.20
2023-03-27T10:13:33.374Z,9.75
2023-03-27T10:16:00.842Z,26.35
2023-03-27T10:18:28.971Z,16.23
2023-03-27T10:20:58.583Z,8.10
2023-03-27T10:23:27.152Z,7.78
2023-03-27T10:25:57.451Z,5.65
2023-03-27T10:28:29.178Z,7.70
2023-03-27T10:31:04.646Z,6.78
2023-03-27T10:33:32.582Z,9.02
2023-03-27T10:35:59.351Z,5.90
2023-03-27T10:38:26.366Z,10.00
2023-03-27T10:40:53.731Z,11.40
2023-03-27T10:43:41.520Z,9.35
2023-03-27T10:46:12.286Z,9.25
2023-03-27T10:49:18.862Z,5.70
2023-03-27T10:52:11.403Z,10.52
2023-03-27T10:54:46.930Z,7.50
2023-03-27T10:57:27.291Z,9.30
2023-03-27T10:59:58.607Z,7.75
2023-03-27T11:02:38.595Z,7.97
2023-03-27T11:05:11.210Z,14.60
2023-03-27T11:10:12.014Z,5.07
2023-03-27T11:12:38.668Z,7.00
2023-03-27T11:15:13.390Z,7.63
2023-03-27T11:17:45.389Z,6.22
2023-03-27T11:20:19.913Z,6.03
2023-03-27T11:22:51.430Z,7.53
2023-03-27T11:25:25.110Z,5.32
2023-03-27T11:28:15.929Z,4.70
2023-03-27T11:31:12.486Z,10.35
2023-03-27T11:33:47.118Z,7.50
2023-03-27T11:36:43.633Z,4.40
2023-03-27T11:39:15.352Z,8.55
2023-03-27T11:41:43.864Z,3.53
2023-03-27T11:44:10.708Z,5.30
2023-03-27T11:49:56.204Z,8.05
2023-03-27T11:55:23.714Z,5.07
2023-03-27T11:58:28.717Z,6.10
2023-03-27T12:01:02.087Z,3.80
2023-03-27T12:03:59.271Z,4.00
2023-03-27T12:07:09.848Z,4.07
2023-03-27T12:12:52.490Z,4.05
2023-03-27T12:15:57.082Z,4.28
2023-03-27T12:18:37.619Z,5.47
2023-03-27T12:21:33.591Z,4.43
2023-03-27T12:24:22.649Z,5.30
2023-03-27T12:26:58.703Z,7.22
2023-03-27T12:29:42.438Z,4.57
2023-03-27T12:35:22.014Z,4.80
2023-03-27T12:38:02.067Z,2.80
2023-03-27T12:40:37.534Z,4.20
2023-03-27T12:43:26.546Z,2.22
2023-03-27T12:46:30.246Z,3.25
2023-03-27T12:54:33.929Z,4.47
2023-03-27T12:57:21.136Z,3.25
2023-03-27T13:05:42.069Z,2.05
2023-03-27T13:08:38.548Z,6.30
2023-03-27T13:11:17.063Z,4.75
2023-03-27T13:14:09.666Z,6.68
2023-03-27T13:19:22.990Z,5.30
2023-03-27T13:22:13.262Z,5.70
2023-03-27T13:25:09.775Z,2.85
2023-03-27T13:28:16.478Z,10.02
2023-03-27T13:30:51.679Z,2.92
2023-03-27T13:33:43.837Z,3.42
2023-03-27T13:36:14.348Z,4.55
2023-03-27T13:41:53.135Z,8.68
2023-03-27T13:44:30.769Z,2.85
2023-03-27T13:47:25.495Z,3.33
2023-03-27T13:50:18.672Z,1.85
2023-03-27T13:55:49.065Z,1.67
2023-03-27T13:58:34.012Z,1.88
2023-03-27T14:01:13.449Z,4.65
2023-03-27T14:04:02.874Z,0.90
2023-03-27T14:06:44.423Z,2.05
2023-03-27T14:09:36.481Z,2.60
2023-03-27T14:12:13.266Z,3.27
2023-03-27T14:15:03.306Z,1.70
2023-03-27T14:18:00.896Z,2.88
2023-03-27T14:20:40.284Z,1.17
2023-03-27T14:23:13.209Z,0.80
2023-03-27T14:25:45.874Z,4.20
2023-03-27T14:33:22.624Z,5.18
2023-03-27T14:35:55.015Z,1.40
2023-03-27T14:40:55.298Z,7.28
2023-03-27T14:43:22.191Z,5.82
2023-03-27T14:45:50.553Z,8.98
2023-03-27T14:48:41.177Z,5.03
2023-03-27T14:51:09.847Z,1.58
2023-03-27T14:53:37.757Z,4.18
2023-03-27T14:56:11.412Z,4.60
2023-03-27T14:58:43.870Z,4.13
2023-03-27T15:01:10.681Z,4.10
2023-03-27T15:03:40.108Z,2.50
2023-03-27T15:06:16.994Z,8.38
2023-03-27T15:08:46.683Z,3.10
2023-03-27T15:11:16.970Z,3.35
2023-03-27T15:13:44.953Z,3.72
2023-03-27T15:16:19.288Z,2.97
2023-03-27T15:19:00.388Z,2.20
2023-03-27T15:21:38.898Z,3.90
2023-03-27T15:24:10.459Z,4.75
2023-03-27T15:26:37.456Z,1.40
2023-03-27T15:29:17.930Z,3.25
2023-03-27T15:31:45.438Z,2.40
2023-03-27T15:34:21.607Z,2.63
2023-03-27T15:36:51.764Z,5.78
2023-03-27T15:39:21.209Z,3.38
2023-03-27T15:41:52.297Z,2.05
2023-03-27T15:44:31.633Z,2.65
2023-03-27T15:46:58.855Z,2.85
2023-03-27T15:49:31.576Z,3.83
2023-03-27T15:51:59.084Z,3.28
2023-03-27T15:54:35.281Z,3.90
2023-03-27T15:57:10.619Z,4.82
2023-03-27T15:59:51.184Z,3.83
2023-03-27T16:02:19.918Z,3.42
2023-03-27T16:04:53.528Z,4.43
2023-03-27T16:07:24.290Z,4.88
2023-03-27T16:09:56.498Z,3.50
2023-03-27T16:12:30.170Z,2.75
2023-03-27T16:14:57.503Z,5.05
2023-03-27T16:17:34.485Z,3.03
2023-03-27T16:20:23.451Z,1.10
2023-03-27T16:22:50.993Z,2.92
2023-03-27T16:25:17.663Z,2.25
2023-03-27T16:27:47.847Z,3.20
2023-03-27T16:30:34.274Z,4.07
2023-03-27T16:33:01.722Z,2.50
2023-03-27T16:35:31.463Z,2.65
2023-03-27T16:37:58.294Z,2.17
2023-03-27T16:40:25.272Z,3.50
2023-03-27T16:42:51.931Z,2.63
2023-03-27T16:45:18.526Z,4.72
2023-03-27T16:47:49.547Z,16.15
2023-03-27T16:50:19.785Z,4.55
2023-03-27T16:52:46.559Z,4.22
2023-03-27T16:55:13.968Z,3.22
2023-03-27T16:57:41.782Z,4.97
2023-03-27T17:00:09.613Z,5.50
2023-03-27T17:02:36.731Z,3.53
2023-03-27T17:05:04.780Z,4.93
2023-03-27T17:07:31.615Z,4.18
2023-03-27T17:09:58.474Z,6.20
2023-03-27T17:12:25.296Z,5.10
2023-03-27T17:14:52.429Z,5.38
2023-03-27T17:17:19.240Z,4.80
2023-03-27T17:19:45.965Z,7.22
2023-03-27T17:22:12.770Z,5.00
2023-03-27T17:24:53.466Z,8.60
2023-03-27T17:27:24.001Z,7.93
2023-03-27T17:29:51.475Z,4.70
2023-03-27T17:32:18.181Z,3.55
2023-03-27T17:34:44.857Z,3.85
2023-03-27T17:37:14.315Z,5.50
2023-03-27T17:39:41.178Z,4.57
2023-03-27T17:42:07.851Z,5.65
2023-03-27T17:44:34.744Z,6.22
2023-03-27T17:47:01.449Z,7.43
2023-03-27T17:49:29.631Z,6.10
2023-03-27T17:51:56.436Z,3.50
2023-03-27T17:54:23.109Z,2.80
2023-03-27T17:56:49.804Z,2.30
2023-03-27T17:59:16.485Z,2.55
2023-03-27T18:01:44.889Z,2.60
2023-03-27T18:04:12.136Z,5.90
2023-03-27T18:06:39.112Z,2.95
2023-03-27T18:09:07.357Z,2.90
2023-03-27T18:11:34.068Z,3.78
2023-03-27T18:14:01.029Z,3.25
2023-03-27T18:16:27.729Z,4.25
2023-03-27T18:18:55.561Z,3.92
2023-03-27T18:21:22.416Z,4.72
2023-03-27T18:23:49.214Z,4.05
2023-03-27T18:26:16.500Z,4.22
2023-03-27T18:28:43.335Z,3.97
2023-03-27T18:31:11.689Z,7.68
2023-03-27T18:33:38.493Z,3.95
2023-03-27T18:36:10.530Z,3.53
2023-03-27T18:38:39.757Z,5.47
2023-03-27T18:41:06.844Z,5.47
2023-03-27T18:43:33.703Z,5.85
2023-03-27T18:46:02.089Z,4.35
2023-03-27T18:48:30.805Z,4.93
2023-03-27T18:50:58.871Z,7.32
2023-03-27T18:53:25.881Z,5.25
2023-03-27T18:55:52.900Z,4.30
2023-03-27T18:58:20.693Z,4.60
2023-03-27T19:00:47.542Z,6.45
2023-03-27T19:03:15.375Z,4.72
2023-03-27T19:05:42.086Z,5.32
2023-03-27T19:08:08.850Z,7.35
2023-03-27T19:10:36.211Z,9.70
2023-03-27T19:13:03.330Z,11.00
2023-03-27T19:15:30.184Z,6.05
2023-03-27T19:17:56.865Z,8.80
2023-03-27T19:20:24.045Z,9.30
2023-03-27T19:22:51.078Z,7.88
2023-03-27T19:25:17.861Z,3.35
2023-03-27T19:27:44.546Z,4.13
2023-03-27T19:30:13.065Z,3.40
2023-03-27T19:32:39.860Z,4.25
2023-03-27T19:35:07.029Z,4.20
2023-03-27T19:37:33.773Z,4.53
2023-03-27T19:40:00.407Z,4.70
2023-03-27T19:42:28.353Z,6.00
2023-03-27T19:44:55.542Z,5.05
2023-03-27T19:47:22.389Z,4.90
2023-03-27T19:49:49.077Z,4.68
2023-03-27T19:52:16.856Z,3.17
2023-03-27T19:54:43.745Z,2.28
2023-03-27T19:57:10.745Z,3.28
2023-03-27T19:59:37.513Z,2.58
2023-03-27T20:02:04.318Z,3.33
2023-03-27T20:04:31.604Z,2.63
2023-03-27T20:07:01.956Z,3.20
2023-03-27T20:09:29.042Z,3.55
2023-03-27T20:11:57.015Z,2.78
2023-03-27T20:14:23.892Z,4.65
2023-03-27T20:16:51.899Z,4.40
2023-03-27T20:19:20.879Z,2.50
2023-03-27T20:21:49.092Z,3.08
2023-03-27T20:24:17.482Z,3.50
2023-03-27T20:26:48.013Z,3.88
2023-03-27T20:29:16.448Z,3.33
2023-03-27T20:31:43.218Z,5.10
2023-03-27T20:34:10.166Z,6.65
2023-03-27T20:36:39.051Z,3.40
2023-03-27T20:39:06.697Z,4.50
2023-03-27T20:41:34.394Z,3.40
2023-03-27T20:44:02.683Z,6.97
2023-03-27T20:46:30.642Z,5.78
2023-03-27T20:48:57.368Z,4.30
2023-03-27T20:51:24.953Z,6.03
2023-03-27T20:53:56.165Z,4.38
2023-03-27T20:56:23.250Z,6.32
2023-03-27T20:58:50.195Z,7.80
2023-03-27T21:01:19.186Z,6.47
2023-03-27T21:03:49.283Z,5.50
2023-03-27T21:06:18.537Z,4.18
2023-03-27T21:08:45.835Z,6.57
2023-03-27T21:11:12.788Z,3.83
2023-03-27T21:13:39.643Z,7.72
2023-03-27T21:16:06.726Z,5.80
2023-03-27T21:18:33.518Z,6.57
2023-03-27T21:21:00.194Z,5.45
2023-03-27T21:23:26.917Z,7.60
2023-03-27T21:25:54.905Z,4.55
2023-03-27T21:28:21.576Z,9.30
2023-03-27T21:30:48.612Z,5.85
2023-03-27T21:33:16.290Z,6.38
2023-03-27T21:35:45.539Z,8.25
2023-03-27T21:38:13.223Z,8.80
2023-03-27T21:40:40.417Z,5.25
2023-03-27T21:43:08.326Z,5.35
2023-03-27T21:45:38.170Z,6.22
2023-03-27T21:48:05.372Z,4.78
2023-03-27T21:50:32.141Z,5.25
2023-03-27T21:52:58.835Z,8.63
2023-03-27T21:55:25.618Z,4.10
2023-03-27T21:57:52.381Z,4.05
2023-03-27T22:00:19.636Z,5.30
2023-03-27T22:02:46.328Z,4.70
2023-03-27T22:05:12.967Z,5.28
2023-03-27T22:07:39.664Z,5.25
2023-03-27T22:10:06.839Z,5.43
2023-03-27T22:12:35.920Z,7.28
2023-03-27T22:15:02.674Z,3.45
2023-03-27T22:17:29.797Z,3.78
2023-03-27T22:19:57.460Z,4.53
2023-03-27T22:22:24.855Z,4.78
2023-03-27T22:24:51.544Z,7.00
2023-03-27T22:27:18.244Z,5.90
2023-03-27T22:29:44.912Z,6.43
2023-03-27T22:32:11.600Z,7.28
2023-03-27T22:34:38.397Z,6.38
2023-03-27T22:37:06.463Z,6.68
2023-03-27T22:39:33.149Z,7.20
2023-03-27T22:41:59.799Z,8.02
2023-03-27T22:44:26.691Z,8.55
2023-03-27T22:46:53.533Z,8.70
2023-03-27T22:49:20.268Z,7.03
2023-03-27T22:51:46.875Z,6.78
2023-03-27T22:54:13.533Z,5.97
2023-03-27T22:56:40.185Z,5.47
2023-03-27T22:59:06.929Z,6.32
2023-03-27T23:01:33.606Z,6.82
2023-03-27T23:04:00.392Z,6.00
2023-03-27T23:06:27.077Z,8.15
2023-03-27T23:08:53.869Z,7.43
2023-03-27T23:11:20.586Z,5.68
2023-03-27T23:13:47.210Z,4.43
2023-03-27T23:16:13.945Z,5.38
2023-03-27T23:18:40.748Z,5.65
2023-03-27T23:21:09.179Z,4.95
2023-03-27T23:23:37.029Z,4.78
2023-03-27T23:26:04.376Z,4.75
2023-03-27T23:28:33.105Z,4.53
2023-03-27T23:31:01.552Z,5.53
2023-03-27T23:33:28.956Z,5.75
2023-03-27T23:36:01.847Z,7.00
2023-03-27T23:38:29.127Z,3.75
2023-03-27T23:40:57.429Z,7.15
2023-03-27T23:43:24.998Z,6.55
2023-03-27T23:45:51.965Z,4.90
2023-03-27T23:48:18.755Z,8.13
2023-03-27T23:50:45.761Z,6.15
2023-03-27T23:53:12.493Z,4.53
2023-03-27T23:55:39.791Z,5.68
2023-03-27T23:58:06.682Z,4.30
